Time;durP1;ratioP1;P1;durP2;ratioP2;P2;SDS_P1;SDS_P2;PMS_P1;PMS_P2;Temp;Humidity;BMP_temperature;BMP_pressure;BME280_temperature;BME280_humidity;BME280_pressure;Samples;Min_cycle;Max_cycle;Signal;HPM_P1;HPM_P2
2022/03/27 00:00:42;;;;;;;5.88;3.60;;;7.80;99.90;;;;;;5099272;28;20077;-64
2022/03/27 00:03:08;;;;;;;5.03;3.65;;;;;;;;;;5117596;28;20461;-64
2022/03/27 00:05:34;;;;;;;4.90;3.70;;;7.70;99.90;;;;;;5117456;28;20066;-64
2022/03/27 00:08:00;;;;;;;5.47;4.00;;;7.60;99.90;;;;;;5115825;28;20405;-64
2022/03/27 00:10:26;;;;;;;4.75;3.30;;;7.70;99.90;;;;;;5116701;28;20032;-64
2022/03/27 00:12:52;;;;;;;4.85;3.63;;;7.60;99.90;;;;;;5115559;28;20039;-64
2022/03/27 00:15:18;;;;;;;5.05;3.63;;;;;;;;;;5098813;28;20038;-65
2022/03/27 00:17:44;;;;;;;4.63;3.85;;;7.60;99.90;;;;;;5116561;28;20092;-64
2022/03/27 00:20:12;;;;;;;4.82;3.95;;;7.50;99.90;;;;;;5116808;28;20036;-64
2022/03/27 00:22:38;;;;;;;4.35;3.67;;;7.40;99.90;;;;;;5115636;28;20051;-64
2022/03/27 00:25:05;;;;;;;5.65;3.67;;;7.40;99.90;;;;;;5116462;28;20108;-64
2022/03/27 00:27:31;;;;;;;5.13;3.40;;;7.10;99.90;;;;;;5116584;28;20036;-64
2022/03/27 00:29:58;;;;;;;4.50;3.47;;;7.10;99.90;;;;;;5115091;28;20082;-64
2022/03/27 00:32:23;;;;;;;5.20;3.75;;;7.00;99.90;;;;;;5114478;28;20039;-64
2022/03/27 00:34:50;;;;;;;4.45;3.40;;;;;;;;;;5116607;28;20039;-64
2022/03/27 00:37:16;;;;;;;5.60;3.25;;;7.10;99.90;;;;;;5116445;28;20508;-64
2022/03/27 00:39:42;;;;;;;4.20;3.60;;;;;;;;;;5114931;28;20054;-64
2022/03/27 00:42:08;;;;;;;4.07;3.50;;;;;;;;;;5115128;28;20396;-64
2022/03/27 00:44:35;;;;;;;4.78;3.90;;;;;;;;;;5116181;28;20040;-64
2022/03/27 00:47:01;;;;;;;6.63;4.50;;;7.10;99.90;;;;;;5115062;28;20424;-64
2022/03/27 00:49:28;;;;;;;6.05;4.35;;;;;;;;;;5081045;28;20144;-64
2022/03/27 00:51:54;;;;;;;5.55;4.32;;;7.30;99.90;;;;;;5114999;28;20055;-64
2022/03/27 00:54:20;;;;;;;6.43;4.40;;;7.30;99.90;;;;;;5114794;28;20035;-64
2022/03/27 00:56:46;;;;;;;6.18;4.78;;;7.10;99.90;;;;;;5117482;28;20032;-64
2022/03/27 00:59:11;;;;;;;8.82;5.50;;;7.20;99.90;;;;;;5117338;28;20118;-64
2022/03/27 01:01:39;;;;;;;8.20;4.70;;;7.30;99.90;;;;;;5115664;28;20481;-64
2022/03/27 01:04:06;;;;;;;8.65;5.68;;;7.30;99.90;;;;;;5117061;28;20051;-64
2022/03/27 01:06:35;;;;;;;8.02;4.90;;;7.40;99.90;;;;;;5115568;28;20050;-64
2022/03/27 01:11:47;;;;;;;8.65;5.47;;;;;;;;;;5116917;28;20123;-64
2022/03/27 01:14:18;;;;;;;7.90;4.82;;;;;;;;;;5117031;28;20058;-64
2022/03/27 01:16:47;;;;;;;6.65;4.70;;;7.40;99.90;;;;;;5115232;28;20399;-64
2022/03/27 01:19:14;;;;;;;8.70;5.15;;;;;;;;;;5098321;28;20036;-64
2022/03/27 01:21:42;;;;;;;8.23;5.15;;;7.20;99.90;;;;;;5115025;28;20051;-64
2022/03/27 01:24:09;;;;;;;7.32;5.15;;;;;;;;;;5114879;28;20044;-64
2022/03/27 01:26:36;;;;;;;8.20;5.13;;;7.40;99.90;;;;;;5117155;28;20044;-64
2022/03/27 01:29:02;;;;;;;7.80;4.40;;;;;;;;;;5116195;28;20092;-64
2022/03/27 01:31:27;;;;;;;8.02;4.88;;;7.30;99.90;;;;;;5116347;28;20040;-65
2022/03/27 01:33:53;;;;;;;7.43;4.63;;;7.30;99.90;;;;;;5115348;28;20055;-64
2022/03/27 01:36:36;;;;;;;9.07;4.75;;;7.50;99.90;;;;;;5116181;28;20067;-64
2022/03/27 01:39:10;;;;;;;7.95;4.68;;;7.50;99.90;;;;;;5115641;28;20544;-65
2022/03/27 01:41:37;;;;;;;11.00;5.50;;;7.40;99.90;;;;;;5098199;28;20552;-64
2022/03/27 01:44:04;;;;;;;8.75;5.53;;;7.50;99.90;;;;;;5115168;28;20039;-64
2022/03/27 01:46:35;;;;;;;11.00;5.78;;;7.50;99.90;;;;;;5114740;28;20054;-64
2022/03/27 01:49:02;;;;;;;8.85;5.28;;;7.40;99.90;;;;;;5114857;28;20043;-64
2022/03/27 01:51:28;;;;;;;6.75;4.90;;;7.50;99.90;;;;;;5113988;28;20043;-63
2022/03/27 01:53:55;;;;;;;8.73;5.68;;;7.40;99.90;;;;;;5115621;28;20044;-64
2022/03/27 01:56:21;;;;;;;10.65;5.70;;;;;;;;;;5097314;28;20039;-64
2022/03/27 01:58:47;;;;;;;10.20;5.18;;;;;;;;;;5116031;28;20100;-64
2022/03/27 02:01:12;;;;;;;11.27;5.70;;;7.50;99.90;;;;;;5115723;28;20036;-64
2022/03/27 02:03:38;;;;;;;10.88;5.18;;;7.70;99.90;;;;;;5115053;28;20044;-64
2022/03/27 02:06:05;;;;;;;9.82;4.43;;;7.40;99.90;;;;;;5097143;28;20086;-64
2022/03/27 02:08:32;;;;;;;10.75;4.72;;;7.60;99.90;;;;;;5085612;28;20131;-64
2022/03/27 02:10:58;;;;;;;9.30;4.95;;;7.40;99.90;;;;;;5094520;28;20156;-64
2022/03/27 02:13:24;;;;;;;8.93;4.97;;;7.50;99.90;;;;;;5094269;28;20511;-64
2022/03/27 02:15:50;;;;;;;9.98;5.13;;;;;;;;;;5094188;28;20077;-64
2022/03/27 02:18:16;;;;;;;10.55;5.40;;;7.50;99.90;;;;;;5094002;28;20044;-64
2022/03/27 02:20:44;;;;;;;12.15;5.50;;;7.50;99.90;;;;;;5096384;28;20043;-64
2022/03/27 02:23:10;;;;;;;12.60;5.40;;;7.60;99.90;;;;;;5094689;28;20047;-65
2022/03/27 02:25:36;;;;;;;13.30;5.55;;;;;;;;;;5095671;28;20036;-64
2022/03/27 02:28:03;;;;;;;10.15;5.53;;;7.50;99.90;;;;;;5094639;28;20047;-64
2022/03/27 02:30:29;;;;;;;10.57;6.03;;;;;;;;;;5094416;28;20054;-66
2022/03/27 02:32:56;;;;;;;12.02;5.38;;;;;;;;;;5095603;28;20051;-62
2022/03/27 02:35:22;;;;;;;13.30;6.22;;;7.30;99.90;;;;;;5096701;28;20047;-65
2022/03/27 02:37:48;;;;;;;12.85;6.13;;;7.40;99.90;;;;;;5099671;28;20409;-65
2022/03/27 02:40:13;;;;;;;12.18;5.97;;;7.50;99.90;;;;;;5097970;28;20040;-64
2022/03/27 02:42:39;;;;;;;13.43;6.68;;;;;;;;;;5097030;28;20096;-63
2022/03/27 02:45:06;;;;;;;13.80;6.97;;;7.40;99.90;;;;;;5087582;28;20409;-64
2022/03/27 02:47:35;;;;;;;18.10;7.75;;;7.40;99.90;;;;;;5117985;28;20096;-63
2022/03/27 02:50:02;;;;;;;12.77;6.53;;;7.40;99.90;;;;;;5118152;28;20100;-64
2022/03/27 02:52:28;;;;;;;14.45;6.68;;;;;;;;;;5118560;27;20118;-64
2022/03/27 02:54:54;;;;;;;14.27;6.90;;;;;;;;;;5100519;28;20047;-64
2022/03/27 02:57:20;;;;;;;14.00;7.38;;;7.50;99.90;;;;;;5118385;28;20046;-64
2022/03/27 02:59:46;;;;;;;15.80;7.03;;;;;;;;;;5118391;28;20069;-64
2022/03/27 03:02:12;;;;;;;15.07;6.72;;;;;;;;;;5119171;28;20051;-63
2022/03/27 03:04:38;;;;;;;13.27;6.75;;;7.40;99.90;;;;;;5118097;28;20039;-64
2022/03/27 03:07:03;;;;;;;13.15;7.32;;;7.50;99.90;;;;;;5119437;28;20390;-64
2022/03/27 03:09:29;;;;;;;19.77;6.45;;;7.50;99.90;;;;;;5100412;28;20039;-64
2022/03/27 03:11:55;;;;;;;13.95;6.45;;;;;;;;;;5118282;28;20131;-64
2022/03/27 03:14:21;;;;;;;11.70;6.28;;;;;;;;;;5117966;28;20042;-64
2022/03/27 03:16:47;;;;;;;12.90;6.30;;;7.40;99.90;;;;;;5118206;28;20122;-64
2022/03/27 03:19:13;;;;;;;17.60;6.55;;;;;;;;;;5117772;28;20400;-64
2022/03/27 03:21:40;;;;;;;16.38;6.07;;;7.20;99.90;;;;;;5118136;28;20560;-64
2022/03/27 03:24:07;;;;;;;13.45;6.45;;;7.50;99.90;;;;;;5117505;28;20054;-64
2022/03/27 03:26:33;;;;;;;15.10;7.10;;;7.20;99.90;;;;;;5100892;28;20385;-64
2022/03/27 03:28:59;;;;;;;16.15;7.30;;;7.40;99.90;;;;;;5117417;28;20051;-64
2022/03/27 03:31:24;;;;;;;15.50;7.38;;;7.40;99.90;;;;;;5118327;28;20046;-64
2022/03/27 03:33:50;;;;;;;16.73;7.20;;;;;;;;;;5117493;28;20046;-64
2022/03/27 03:36:16;;;;;;;16.00;7.65;;;;;;;;;;5118548;28;20481;-64
2022/03/27 03:38:42;;;;;;;14.30;7.13;;;7.30;99.90;;;;;;5118441;28;20035;-64
2022/03/27 03:41:09;;;;;;;17.42;7.38;;;7.40;99.90;;;;;;5117966;28;20038;-64
2022/03/27 03:43:36;;;;;;;18.88;7.60;;;7.40;99.90;;;;;;5119201;28;20092;-64
2022/03/27 03:46:03;;;;;;;17.00;7.50;;;7.40;99.90;;;;;;5117036;28;20043;-64
2022/03/27 03:48:29;;;;;;;14.10;6.72;;;7.40;99.90;;;;;;5117321;28;20047;-63
2022/03/27 03:50:54;;;;;;;17.55;6.72;;;7.30;99.90;;;;;;5116514;28;20047;-64
2022/03/27 03:53:20;;;;;;;15.32;7.07;;;7.40;99.90;;;;;;5116596;28;20074;-64
2022/03/27 03:55:46;;;;;;;16.65;7.68;;;7.30;99.90;;;;;;5117410;28;20497;-64
2022/03/27 03:58:11;;;;;;;19.15;6.50;;;7.30;99.90;;;;;;5117462;28;20107;-64
2022/03/27 04:00:37;;;;;;;19.35;6.95;;;7.40;99.90;;;;;;5117810;28;20035;-64
2022/03/27 04:03:03;;;;;;;18.23;7.45;;;7.30;99.90;;;;;;5116158;28;20068;-64
2022/03/27 04:05:28;;;;;;;12.68;6.70;;;7.40;99.90;;;;;;5099876;28;20035;-65
2022/03/27 04:07:54;;;;;;;11.20;6.30;;;7.30;99.90;;;;;;5116018;28;20066;-64
2022/03/27 04:10:19;;;;;;;19.17;6.55;;;7.30;99.90;;;;;;5117439;28;20070;-64
2022/03/27 04:12:45;;;;;;;14.27;6.50;;;;;;;;;;5116572;28;20039;-64
2022/03/27 04:15:11;;;;;;;18.20;6.88;;;7.40;99.90;;;;;;5116822;28;20082;-64
2022/03/27 04:17:47;;;;;;;16.70;6.57;;;7.30;99.90;;;;;;5118224;28;20039;-64
2022/03/27 04:20:13;;;;;;;21.17;6.20;;;7.30;99.90;;;;;;5115267;28;20039;-63
2022/03/27 04:22:40;;;;;;;20.17;6.97;;;7.40;99.90;;;;;;5116029;28;20161;-64
2022/03/27 04:25:06;;;;;;;21.20;6.82;;;7.30;99.90;;;;;;5116890;28;20043;-62
2022/03/27 04:27:32;;;;;;;20.92;6.00;;;7.40;99.90;;;;;;5117256;28;20042;-63
2022/03/27 04:29:57;;;;;;;16.95;6.10;;;7.30;99.90;;;;;;5099780;28;20126;-64
2022/03/27 04:32:23;;;;;;;17.58;6.88;;;;;;;;;;5117500;28;20048;-64
2022/03/27 04:34:50;;;;;;;13.38;6.10;;;;;;;;;;5116823;28;20071;-63
2022/03/27 04:37:16;;;;;;;12.75;5.60;;;;;;;;;;5118011;28;20031;-64
2022/03/27 04:39:42;;;;;;;18.23;6.68;;;;;;;;;;5099102;28;20497;-64
2022/03/27 04:42:09;;;;;;;13.63;5.88;;;7.30;99.90;;;;;;5115435;28;20407;-64
2022/03/27 04:44:35;;;;;;;17.85;5.90;;;7.30;99.90;;;;;;5116990;28;20071;-63
2022/03/27 04:47:00;;;;;;;15.80;5.18;;;7.20;99.90;;;;;;5116240;28;20392;-64
2022/03/27 04:49:26;;;;;;;23.20;5.78;;;7.30;99.90;;;;;;5115717;28;20035;-64
2022/03/27 04:51:51;;;;;;;12.85;5.85;;;7.40;99.90;;;;;;5115625;28;20051;-64
2022/03/27 04:54:17;;;;;;;21.02;6.15;;;7.40;99.90;;;;;;5116477;28;20046;-64
2022/03/27 04:56:43;;;;;;;25.48;6.80;;;7.40;99.90;;;;;;5115787;28;20038;-64
2022/03/27 04:59:08;;;;;;;17.17;6.15;;;7.40;99.90;;;;;;5116581;28;20063;-64
2022/03/27 05:01:34;;;;;;;19.23;5.70;;;;;;;;;;5112031;28;20500;-64
2022/03/27 05:04:00;;;;;;;19.80;6.97;;;;;;;;;;5095822;28;20048;-63
2022/03/27 05:06:26;;;;;;;20.42;6.53;;;7.30;99.90;;;;;;5095258;28;20048;-64
2022/03/27 05:08:51;;;;;;;19.02;6.32;;;7.40;99.90;;;;;;5094658;28;20047;-64
2022/03/27 05:11:18;;;;;;;22.40;7.05;;;7.40;99.90;;;;;;5094203;28;20113;-64
2022/03/27 05:13:46;;;;;;;18.83;6.50;;;7.30;99.90;;;;;;5096751;28;20401;-64
2022/03/27 05:16:12;;;;;;;19.85;5.97;;;7.40;99.90;;;;;;5096002;28;20040;-64
2022/03/27 05:18:38;;;;;;;21.48;5.60;;;7.40;99.90;;;;;;5093739;28;20044;-64
2022/03/27 05:21:04;;;;;;;20.90;6.30;;;7.60;99.90;;;;;;5096385;28;20088;-64
2022/03/27 05:23:30;;;;;;;17.20;6.05;;;;;;;;;;5110087;28;20051;-64
2022/03/27 05:25:56;;;;;;;19.42;6.00;;;;;;;;;;5110078;28;20043;-64
2022/03/27 05:28:22;;;;;;;20.15;6.68;;;;;;;;;;5111366;28;20039;-64
2022/03/27 05:30:48;;;;;;;24.40;7.10;;;;;;;;;;5111381;28;20051;-64
2022/03/27 05:33:14;;;;;;;21.60;7.05;;;7.50;99.90;;;;;;5105171;28;20051;-64
2022/03/27 05:35:41;;;;;;;21.70;6.28;;;7.40;99.90;;;;;;5091079;28;20515;-64
2022/03/27 05:38:07;;;;;;;19.05;5.90;;;;;;;;;;5090423;28;20497;-64
2022/03/27 05:40:33;;;;;;;17.40;5.97;;;;;;;;;;5090528;28;20066;-64
2022/03/27 05:42:59;;;;;;;18.52;6.57;;;;;;;;;;5089481;28;20051;-64
2022/03/27 05:45:25;;;;;;;30.50;7.18;;;7.70;99.90;;;;;;5101458;28;20443;-64
2022/03/27 05:47:51;;;;;;;20.77;6.75;;;7.60;99.90;;;;;;5110951;28;20043;-64
2022/03/27 05:50:19;;;;;;;15.90;5.45;;;;;;;;;;5111034;28;20047;-64
2022/03/27 05:52:45;;;;;;;20.13;6.25;;;7.50;99.90;;;;;;5110860;28;20051;-64
2022/03/27 05:55:12;;;;;;;24.92;8.05;;;7.50;99.90;;;;;;5109586;28;20035;-62
2022/03/27 05:57:38;;;;;;;20.40;6.20;;;7.60;99.90;;;;;;5110822;28;20031;-62
2022/03/27 06:00:05;;;;;;;16.92;6.50;;;7.50;99.90;;;;;;5109243;28;20041;-63
2022/03/27 06:02:31;;;;;;;17.35;7.55;;;;;;;;;;5099191;28;20454;-63
2022/03/27 06:04:57;;;;;;;18.10;6.22;;;;;;;;;;5079965;28;20039;-61
2022/03/27 06:07:23;;;;;;;23.67;6.47;;;;;;;;;;5099571;28;20050;-65
2022/03/27 06:09:51;;;;;;;22.48;6.97;;;;;;;;;;5108373;28;20031;-65
2022/03/27 06:12:17;;;;;;;22.98;6.60;;;;;;;;;;5105806;28;20527;-65
2022/03/27 06:14:43;;;;;;;17.48;6.60;;;7.70;99.90;;;;;;5107869;28;20074;-65
2022/03/27 06:17:09;;;;;;;20.63;7.15;;;;;;;;;;5107510;28;20069;-65
2022/03/27 06:19:35;;;;;;;22.02;6.55;;;;;;;;;;5075883;28;20101;-65
2022/03/27 06:22:01;;;;;;;27.50;7.75;;;;;;;;;;5090540;28;20075;-66
2022/03/27 06:24:27;;;;;;;22.70;6.35;;;;;;;;;;5089148;28;20104;-65
2022/03/27 06:26:53;;;;;;;20.60;7.35;;;;;;;;;;5090801;28;20043;-65
2022/03/27 06:29:21;;;;;;;23.58;7.88;;;7.50;99.90;;;;;;5089492;28;20509;-66
2022/03/27 06:31:48;;;;;;;23.02;7.20;;;;;;;;;;5093174;28;20504;-64
2022/03/27 06:34:14;;;;;;;24.65;7.53;;;;;;;;;;5092712;28;20048;-65
2022/03/27 06:36:41;;;;;;;25.80;8.23;;;;;;;;;;5094144;28;20040;-64
2022/03/27 06:39:08;;;;;;;23.15;8.68;;;7.50;99.90;;;;;;5093119;28;20052;-66
2022/03/27 06:41:34;;;;;;;25.25;7.53;;;7.80;99.90;;;;;;5098272;28;20043;-66
2022/03/27 06:44:00;;;;;;;21.83;8.18;;;;;;;;;;5105467;28;20055;-66
2022/03/27 06:46:27;;;;;;;26.88;7.28;;;7.50;99.90;;;;;;5116359;28;20043;-66
2022/03/27 06:48:53;;;;;;;26.20;8.13;;;7.60;99.90;;;;;;5117308;28;20049;-66
2022/03/27 06:51:19;;;;;;;18.30;7.03;;;7.50;99.90;;;;;;5113261;28;20367;-65
2022/03/27 06:53:45;;;;;;;31.45;9.23;;;7.50;99.90;;;;;;5096276;28;20056;-65
2022/03/27 06:56:11;;;;;;;25.13;7.80;;;7.60;99.90;;;;;;5082027;28;20610;-64
2022/03/27 06:58:37;;;;;;;20.17;6.97;;;7.70;99.90;;;;;;5117469;28;20035;-67
2022/03/27 07:03:47;;;;;;;25.47;8.23;;;;;;;;;;5117017;28;20075;-66
2022/03/27 07:06:19;;;;;;;26.10;8.02;;;7.60;99.90;;;;;;5098879;28;20040;-65
2022/03/27 07:08:44;;;;;;;20.73;7.18;;;7.80;99.90;;;;;;5095774;28;20184;-66
2022/03/27 07:11:10;;;;;;;19.80;6.72;;;7.90;99.90;;;;;;5094361;28;20039;-65
2022/03/27 07:13:36;;;;;;;23.52;7.30;;;8.00;99.90;;;;;;5095578;28;20614;-65
2022/03/27 07:16:02;;;;;;;29.63;8.20;;;;;;;;;;5097165;28;20626;-64
2022/03/27 07:18:29;;;;;;;27.40;6.13;;;7.80;99.90;;;;;;5095918;28;20123;-66
2022/03/27 07:20:55;;;;;;;23.65;6.60;;;7.90;99.90;;;;;;5105104;27;20040;-66
2022/03/27 07:23:21;;;;;;;21.65;6.28;;;7.90;99.90;;;;;;5103575;28;20079;-66
2022/03/27 07:25:52;;;;;;;26.83;6.38;;;8.00;99.90;;;;;;5095699;28;20425;-65
2022/03/27 07:28:18;;;;;;;31.60;8.73;;;;;;;;;;5083103;28;20040;-65
2022/03/27 07:30:45;;;;;;;28.17;7.75;;;;;;;;;;5092736;28;20641;-66
2022/03/27 07:33:12;;;;;;;28.90;6.82;;;7.70;99.90;;;;;;5092932;28;20060;-65
2022/03/27 07:35:38;;;;;;;27.63;6.90;;;;;;;;;;5095626;28;20031;-66
2022/03/27 07:38:05;;;;;;;26.65;6.38;;;7.80;99.90;;;;;;5093565;28;20059;-65
2022/03/27 07:40:31;;;;;;;30.08;6.88;;;7.80;99.90;;;;;;5094219;28;20040;-66
2022/03/27 07:42:57;;;;;;;24.83;7.25;;;7.90;99.90;;;;;;5092830;28;20051;-65
2022/03/27 07:45:26;;;;;;;31.02;7.25;;;;;;;;;;5092075;28;20505;-65
2022/03/27 07:47:53;;;;;;;29.00;8.05;;;;;;;;;;5096818;28;20048;-65
2022/03/27 07:50:19;;;;;;;35.83;7.90;;;;;;;;;;5079886;28;20040;-65
2022/03/27 07:52:46;;;;;;;31.88;6.72;;;8.10;99.90;;;;;;5081409;28;20059;-66
2022/03/27 07:55:14;;;;;;;30.77;7.18;;;8.20;99.90;;;;;;5113734;28;20047;-64
2022/03/27 07:57:41;;;;;;;31.35;7.43;;;;;;;;;;5099831;28;20135;-64
2022/03/27 08:00:10;;;;;;;25.80;7.03;;;8.20;99.90;;;;;;5113684;28;20035;-64
2022/03/27 08:02:39;;;;;;;31.52;7.65;;;8.20;99.90;;;;;;5100593;28;20512;-64
2022/03/27 08:05:05;;;;;;;35.35;6.88;;;8.20;99.90;;;;;;5093602;28;20040;-65
2022/03/27 08:07:31;;;;;;;30.58;6.82;;;8.20;99.90;;;;;;5093473;28;20061;-64
2022/03/27 08:09:58;;;;;;;29.35;8.02;;;;;;;;;;5091695;28;20035;-65
2022/03/27 08:12:24;;;;;;;41.58;9.15;;;;;;;;;;5090605;28;20093;-63
2022/03/27 08:14:50;;;;;;;31.92;7.45;;;;;;;;;;5093117;28;20549;-64
2022/03/27 08:17:16;;;;;;;28.52;7.32;;;;;;;;;;5104405;28;20046;-64
2022/03/27 08:19:43;;;;;;;38.42;9.35;;;;;;;;;;5104702;28;20031;-65
2022/03/27 08:22:09;;;;;;;29.67;7.72;;;;;;;;;;5086103;27;20095;-65
2022/03/27 08:24:35;;;;;;;31.02;7.60;;;;;;;;;;5083954;28;20457;-65
2022/03/27 08:27:03;;;;;;;32.10;8.60;;;;;;;;;;5082555;28;20059;-64
2022/03/27 08:29:31;;;;;;;38.60;8.77;;;10.70;99.90;;;;;;5068914;28;20483;-65
2022/03/27 08:32:00;;;;;;;32.28;7.85;;;11.70;99.90;;;;;;5081461;28;20036;-65
2022/03/27 08:34:28;;;;;;;33.60;8.10;;;12.30;99.90;;;;;;5083367;28;20418;-65
2022/03/27 08:36:54;;;;;;;33.05;7.32;;;12.70;99.90;;;;;;5084774;28;20046;-64
2022/03/27 08:39:21;;;;;;;29.98;7.20;;;;;;;;;;5102401;28;20497;-66
2022/03/27 08:41:48;;;;;;;30.40;6.85;;;13.50;99.90;;;;;;5104893;28;20042;-65
2022/03/27 08:44:18;;;;;;;21.92;6.25;;;13.40;99.90;;;;;;5105034;28;20035;-65
2022/03/27 08:46:45;;;;;;;41.63;8.13;;;14.00;99.90;;;;;;5086969;28;20115;-66
2022/03/27 08:49:34;;;;;;;36.08;7.53;;;14.10;99.90;;;;;;5088335;28;20051;-66
2022/03/27 08:52:29;;;;;;;31.58;6.65;;;14.30;99.90;;;;;;5073487;28;20560;-66
2022/03/27 08:55:02;;;;;;;24.57;6.40;;;14.90;99.90;;;;;;5088389;28;20064;-65
2022/03/27 08:57:46;;;;;;;34.03;8.02;;;15.70;99.90;;;;;;5100473;28;20067;-66
2022/03/27 09:00:13;;;;;;;23.90;7.03;;;16.40;99.90;;;;;;5099956;28;20079;-65
2022/03/27 09:02:40;;;;;;;33.15;6.78;;;17.20;99.90;;;;;;5095447;28;20439;-65
2022/03/27 09:05:07;;;;;;;32.70;6.78;;;17.60;99.90;;;;;;5091206;28;20044;-65
2022/03/27 09:07:33;;;;;;;26.92;6.38;;;17.20;99.90;;;;;;5090593;28;20043;-66
2022/03/27 09:09:59;;;;;;;30.77;6.90;;;;;;;;;;5091934;28;20405;-65
2022/03/27 09:12:28;;;;;;;26.77;7.80;;;16.30;99.90;;;;;;5092731;28;20482;-66
2022/03/27 09:14:53;;;;;;;24.52;6.20;;;16.00;99.90;;;;;;5091080;28;20084;-67
2022/03/27 09:17:19;;;;;;;29.83;7.63;;;;;;;;;;5091986;28;20044;-66
2022/03/27 09:19:50;;;;;;;27.88;7.13;;;15.40;99.90;;;;;;5105911;28;20039;-66
2022/03/27 09:22:16;;;;;;;31.40;7.03;;;15.40;99.90;;;;;;5096767;28;20065;-65
2022/03/27 09:24:46;;;;;;;29.33;6.22;;;15.90;99.90;;;;;;5092384;28;20165;-66
2022/03/27 09:27:12;;;;;;;28.23;7.32;;;15.70;99.90;;;;;;5091567;28;20124;-65
2022/03/27 09:30:00;;;;;;;34.13;6.93;;;15.10;99.90;;;;;;5092602;28;20082;-65
2022/03/27 09:32:27;;;;;;;28.77;7.25;;;15.10;99.90;;;;;;5079449;28;20044;-65
2022/03/27 09:35:14;;;;;;;22.33;5.75;;;15.60;99.90;;;;;;5091244;28;20090;-65
2022/03/27 09:37:46;;;;;;;31.00;7.68;;;15.20;99.90;;;;;;5092856;28;20043;-65
2022/03/27 09:40:13;;;;;;;22.92;5.43;;;15.20;99.90;;;;;;5091116;28;20122;-65
2022/03/27 09:42:41;;;;;;;28.67;5.97;;;15.10;99.90;;;;;;5092327;28;20044;-65
2022/03/27 09:45:09;;;;;;;29.90;6.70;;;15.20;99.90;;;;;;5098469;28;20043;-66
2022/03/27 09:47:35;;;;;;;29.58;7.40;;;15.00;99.90;;;;;;5112909;28;20055;-66
2022/03/27 09:50:01;;;;;;;28.58;6.05;;;15.00;99.90;;;;;;5112577;28;20397;-66
2022/03/27 09:52:26;;;;;;;21.50;5.72;;;15.10;99.90;;;;;;5096772;28;20063;-66
2022/03/27 09:54:55;;;;;;;26.25;5.55;;;15.20;99.90;;;;;;5092120;28;20552;-66
2022/03/27 09:57:21;;;;;;;22.55;6.57;;;15.40;99.90;;;;;;5090661;28;20060;-66
2022/03/27 09:59:48;;;;;;;30.48;5.80;;;15.50;99.90;;;;;;5090901;28;20043;-65
2022/03/27 10:02:27;;;;;;;27.85;6.75;;;15.80;99.90;;;;;;5073778;28;20040;-65
2022/03/27 10:05:03;;;;;;;23.08;5.80;;;16.20;99.90;;;;;;5099019;28;20036;-64
2022/03/27 10:07:35;;;;;;;25.02;4.90;;;16.40;99.90;;;;;;5090756;28;20075;-64
2022/03/27 10:10:01;;;;;;;20.05;5.13;;;16.30;99.90;;;;;;5092378;28;20058;-66
2022/03/27 10:12:29;;;;;;;24.75;6.38;;;16.30;99.90;;;;;;5099192;28;20036;-66
2022/03/27 10:14:57;;;;;;;23.02;5.55;;;16.40;99.90;;;;;;5112749;28;20027;-65
2022/03/27 10:17:26;;;;;;;25.33;5.93;;;16.00;99.90;;;;;;5111466;28;20079;-66
2022/03/27 10:19:56;;;;;;;23.60;5.55;;;16.00;99.90;;;;;;5111250;28;20111;-67
2022/03/27 10:22:24;;;;;;;21.90;4.20;;;16.40;99.90;;;;;;5112802;28;20092;-67
2022/03/27 10:24:53;;;;;;;21.98;4.53;;;16.40;99.90;;;;;;5111441;28;20090;-66
2022/03/27 10:27:19;;;;;;;27.88;6.35;;;16.70;99.90;;;;;;5112950;28;20078;-66
2022/03/27 10:29:46;;;;;;;26.55;4.60;;;16.40;99.90;;;;;;5111534;28;20484;-66
2022/03/27 10:32:12;;;;;;;21.05;5.00;;;16.20;99.90;;;;;;5093697;28;20047;-66
2022/03/27 10:34:53;;;;;;;20.00;4.78;;;16.50;99.90;;;;;;5112661;28;20126;-66
2022/03/27 10:37:52;;;;;;;15.80;4.20;;;16.60;99.90;;;;;;5112601;28;20035;-66
2022/03/27 10:40:34;;;;;;;16.92;4.40;;;16.70;99.90;;;;;;5112648;28;20043;-66
2022/03/27 10:43:11;;;;;;;23.33;4.97;;;16.90;99.90;;;;;;5100860;28;20044;-66
2022/03/27 10:45:37;;;;;;;17.13;3.95;;;16.90;99.90;;;;;;5101600;28;20040;-66
2022/03/27 10:48:18;;;;;;;21.88;4.78;;;16.50;99.90;;;;;;5104409;28;20039;-65
2022/03/27 10:50:52;;;;;;;19.48;4.20;;;16.60;99.90;;;;;;5091901;28;20040;-66
2022/03/27 10:53:22;;;;;;;16.57;3.63;;;16.40;99.90;;;;;;5090168;28;20048;-66
2022/03/27 10:55:52;;;;;;;19.10;3.72;;;16.20;99.90;;;;;;5093378;28;20036;-64
2022/03/27 10:58:30;;;;;;;19.75;4.55;;;15.90;99.90;;;;;;5095488;28;20047;-65
2022/03/27 11:01:01;;;;;;;17.45;5.70;;;16.10;99.90;;;;;;5114407;28;20107;-67
2022/03/27 11:03:45;;;;;;;24.85;4.95;;;16.10;99.90;;;;;;5097765;27;20040;-68
2022/03/27 11:06:47;;;;;;;24.73;5.13;;;16.30;99.90;;;;;;5093367;28;20101;-68
2022/03/27 11:09:33;;;;;;;16.25;3.65;;;16.20;99.90;;;;;;5095326;28;20468;-65
2022/03/27 11:12:00;;;;;;;14.45;3.80;;;16.30;99.90;;;;;;5103906;28;20092;-66
2022/03/27 11:15:02;;;;;;;14.75;3.67;;;16.30;99.90;;;;;;5096281;28;20102;-66
2022/03/27 11:17:44;;;;;;;18.42;4.07;;;16.10;99.90;;;;;;5096459;28;20036;-66
2022/03/27 11:20:30;;;;;;;16.38;3.58;;;15.90;99.90;;;;;;5093601;28;20044;-66
2022/03/27 11:22:58;;;;;;;14.20;3.40;;;15.80;99.90;;;;;;5083695;28;20105;-66
2022/03/27 11:25:36;;;;;;;16.90;3.13;;;16.00;99.90;;;;;;5094555;28;20046;-66
2022/03/27 11:28:06;;;;;;;12.02;4.07;;;15.80;99.90;;;;;;5097440;28;20119;-66
2022/03/27 11:30:35;;;;;;;16.50;3.67;;;15.90;99.90;;;;;;5094527;28;20093;-66
2022/03/27 11:33:18;;;;;;;12.35;3.38;;;16.00;99.90;;;;;;5093314;28;20058;-66
2022/03/27 11:36:11;;;;;;;18.13;3.35;;;16.10;99.90;;;;;;5096248;28;20051;-66
2022/03/27 11:38:52;;;;;;;17.13;3.33;;;15.80;99.90;;;;;;5084420;28;20052;-66
2022/03/27 11:41:42;;;;;;;16.27;3.70;;;16.20;99.90;;;;;;5103245;28;20040;-65
2022/03/27 11:44:16;;;;;;;12.38;3.60;;;16.00;99.90;;;;;;5093848;28;20051;-65
2022/03/27 11:46:54;;;;;;;23.88;3.38;;;16.10;99.90;;;;;;5093664;28;20052;-65
2022/03/27 11:49:21;;;;;;;22.33;5.15;;;16.10;99.90;;;;;;5094049;28;20078;-65
2022/03/27 11:52:02;;;;;;;20.17;4.10;;;16.00;99.90;;;;;;5093843;28;20063;-66
2022/03/27 11:54:28;;;;;;;16.90;3.38;;;16.10;99.90;;;;;;5092975;28;20080;-66
2022/03/27 11:56:55;;;;;;;12.38;3.13;;;15.80;99.90;;;;;;5093232;28;20086;-66
2022/03/27 11:59:23;;;;;;;15.60;3.95;;;16.10;99.90;;;;;;5094767;28;20032;-66
2022/03/27 12:02:00;;;;;;;21.60;4.35;;;16.10;99.90;;;;;;5094273;28;20058;-66
2022/03/27 12:04:27;;;;;;;22.20;4.80;;;16.10;99.90;;;;;;5092566;28;20046;-66
2022/03/27 12:07:00;;;;;;;13.23;3.28;;;16.30;99.90;;;;;;5092312;28;20040;-65
2022/03/27 12:09:28;;;;;;;18.58;3.70;;;16.20;99.90;;;;;;5096256;28;20079;-65
2022/03/27 12:12:14;;;;;;;17.17;4.45;;;16.30;99.90;;;;;;5100736;28;20837;-65
2022/03/27 12:14:53;;;;;;;21.35;4.13;;;16.20;99.90;;;;;;5093870;28;20044;-65
2022/03/27 12:17:18;;;;;;;15.25;3.83;;;16.20;99.90;;;;;;5093359;28;20043;-65
2022/03/27 12:20:11;;;;;;;19.35;4.03;;;16.30;99.90;;;;;;5094278;28;20044;-66
2022/03/27 12:22:49;;;;;;;15.65;3.65;;;16.10;99.90;;;;;;5089239;28;20079;-65
2022/03/27 12:25:25;;;;;;;16.13;3.42;;;16.20;99.90;;;;;;5091656;28;20054;-65
2022/03/27 12:30:52;;;;;;;17.27;3.80;;;16.60;99.90;;;;;;5093535;28;20047;-65
2022/03/27 12:33:20;;;;;;;15.02;3.40;;;16.50;99.90;;;;;;5092788;28;20036;-67
2022/03/27 12:35:49;;;;;;;20.98;3.70;;;16.10;99.90;;;;;;5093757;28;20504;-67
2022/03/27 12:38:30;;;;;;;12.77;3.33;;;16.30;99.90;;;;;;5093738;28;20047;-66
2022/03/27 12:40:56;;;;;;;15.00;3.28;;;16.50;99.90;;;;;;5092367;28;20117;-67
2022/03/27 12:43:21;;;;;;;20.70;4.97;;;16.50;99.90;;;;;;5093727;28;20086;-66
2022/03/27 12:45:47;;;;;;;17.20;3.78;;;16.40;99.90;;;;;;5106449;28;20040;-66
2022/03/27 12:48:16;;;;;;;13.05;3.80;;;16.40;99.90;;;;;;5114049;28;20039;-67
2022/03/27 12:50:45;;;;;;;14.77;2.67;;;16.40;99.90;;;;;;5113925;28;20048;-66
2022/03/27 12:53:20;;;;;;;16.00;4.03;;;16.50;99.90;;;;;;5107722;28;20063;-67
2022/03/27 12:55:55;;;;;;;10.85;2.60;;;16.40;99.90;;;;;;5092168;28;20047;-66
2022/03/27 12:58:36;;;;;;;16.42;3.17;;;16.50;99.90;;;;;;5092998;28;20043;-66
2022/03/27 13:01:09;;;;;;;14.98;3.47;;;16.50;99.90;;;;;;5092462;28;20513;-67
2022/03/27 13:03:36;;;;;;;14.63;3.70;;;16.30;99.90;;;;;;5091857;28;20517;-66
2022/03/27 13:06:04;;;;;;;14.55;3.08;;;16.30;99.90;;;;;;5091947;28;20044;-67
2022/03/27 13:08:41;;;;;;;12.23;3.38;;;16.80;99.90;;;;;;5091850;28;20126;-67
2022/03/27 13:11:21;;;;;;;19.23;4.30;;;15.80;99.90;;;;;;5093284;28;20067;-66
2022/03/27 13:13:56;;;;;;;17.50;3.20;;;16.20;99.90;;;;;;5111457;28;20104;-67
2022/03/27 13:16:30;;;;;;;17.58;4.10;;;16.30;99.90;;;;;;5112022;28;20046;-66
2022/03/27 13:19:13;;;;;;;13.32;4.22;;;16.20;99.90;;;;;;5094198;28;20500;-67
2022/03/27 13:21:43;;;;;;;14.35;3.30;;;16.50;99.90;;;;;;5097861;28;20117;-67
2022/03/27 13:24:14;;;;;;;15.88;2.97;;;16.20;99.90;;;;;;5092396;28;20032;-66